• Join FlightAware (Why Join?)
  • Login
  • US Flag 
02:03PM EDT


 

Airport Tracker/Info


-or-


 

Live Flight TrackerFlight Track Log ✈ FSR411 ✈ 30-Oct-2013 ✈ KMSY - KCMI

Flight Track Log - Related Links

Times and Time Zones

All times are in EDT time to prevent confusion due to time zone crossing. See the FSR411 flight status page for this flight to view local times or setup timezone preferences in your user account.

Time Position Orientation Groundspeed Altitude Reporting Facility
EDT Latitude Longitude Course Direction KTS MPH feet Rate Location/Type
12:09PM 29.9639 -90.2597 181° South 178 205 1,700  Level Houston Center
12:09PM 29.9575 -90.2619 197° South 157 181 2,400 3,660 Climbing Houston Center
12:10PM 29.9153 -90.2744 194° South 184 212 5,500 3,900 Climbing Houston Center
12:10PM 29.9053 -90.2614 131° Southeast 205 236 6,400 3,240 Climbing Houston Center
12:11PM 29.9250 -90.2183 62° Northeast 217 250 8,900 3,120 Climbing Houston Center
12:11PM 29.9372 -90.2100 31° Northeast 241 277 9,600 3,540 Climbing Houston Center
12:12PM 30.0017 -90.1658 31° Northeast 261 300 12,600 3,060 Climbing Houston Center
12:12PM 30.0028 -90.1664 337° Northwest 303 349 12,700 1,980 Climbing Houston Center
12:13PM 30.0922 -90.1256 22° Northeast 351 404 14,700 1,080 Climbing Houston Center
12:14PM 30.1992 -90.0778 21° North 402 463 14,900 360 Climbing Houston Center
12:15PM 30.3069 -90.0269 22° Northeast 412 474 15,500 1,920 Climbing Houston Center
12:17PM 30.4144 -89.9617 28° Northeast 426 490 18,900 3,120 Climbing Houston Center
12:18PM 30.5242 -89.8992 26° Northeast 430 495 22,000 2,220 Climbing Houston Center
12:19PM 30.6381 -89.8333 26° Northeast 449 517 23,600 1,680 Climbing Houston Center
12:20PM 30.7508 -89.7683 26° Northeast 451 519 25,500 1,800 Climbing Houston Center
12:21PM 30.8844 -89.6906 27° Northeast 447 514 27,400 1,740 Climbing Houston Center
12:22PM 30.9969 -89.6244 27° Northeast 449 517 29,100 1,440 Climbing Houston Center
12:23PM 31.1125 -89.5569 27° Northeast 458 527 30,500 1,320 Climbing Houston Center
12:24PM 31.2317 -89.4883 26° Northeast 471 542 31,900 1,440 Climbing Houston Center
12:25PM 31.3608 -89.4103 27° Northeast 473 544 33,500 1,500 Climbing Houston Center
12:26PM 31.4819 -89.3403 26° Northeast 477 549 35,100 1,440 Climbing Houston Center
12:27PM 31.5975 -89.2722 27° Northeast 472 543 36,500 900 Climbing Houston Center
12:28PM 31.7139 -89.2186 21° North 453 521 37,000 240 Climbing Houston Center
12:29PM 31.8372 -89.2033 North 441 507 37,000  Level Houston Center
12:29PM 31.9086 -89.1950 North 443 510 37,000 120 Level Memphis Center
12:30PM 32.0275 -89.1836 North 432 497 37,200 600 Climbing Memphis Center
12:31PM 32.1444 -89.1722 North 426 490 38,300 1,140 Climbing Memphis Center
12:32PM 32.2611 -89.1608 North 421 484 39,500 1,200 Climbing Memphis Center
12:33PM 32.3883 -89.1469 North 421 484 40,700 720 Climbing Memphis Center
12:34PM 32.5031 -89.1356 North 421 484 41,000 120 Climbing Memphis Center
12:35PM 32.6219 -89.1239 North 421 484 41,000  Level Memphis Center
12:36PM 32.7386 -89.1125 North 421 484 41,000  Level Memphis Center
12:37PM 32.8533 -89.0986 North 421 484 41,000  Level Memphis Center
12:38PM 32.9722 -89.0894 North 421 484 41,000  Level Memphis Center
12:39PM 33.0869 -89.0753 North 421 484 41,000  Level Memphis Center
12:40PM 33.2036 -89.0636 North 421 484 41,000  Level Memphis Center
12:41PM 33.3206 -89.0519 North 421 484 41,000  Level Memphis Center
12:42PM 33.4394 -89.0403 North 421 484 41,000  Level Memphis Center
12:43PM 33.5456 -89.0286 North 429 494 41,000  Level Memphis Center
12:44PM 33.6603 -89.0194 North 429 494 41,000  Level Memphis Center
12:45PM 33.7792 -89.0053 North 424 488 41,000  Level Memphis Center
12:46PM 33.9064 -88.9881 North 417 480 41,000  Level Memphis Center
12:47PM 34.0231 -88.9739 North 424 488 41,000  Level Memphis Center
12:48PM 34.1378 -88.9619 North 419 482 41,000  Level Memphis Center
12:49PM 34.2564 -88.9475 North 419 482 41,000  Level Memphis Center
12:50PM 34.3711 -88.9353 North 424 488 41,000  Level Memphis Center
12:51PM 34.4878 -88.9208 North 419 482 41,000  Level Memphis Center
12:52PM 34.6044 -88.9089 North 419 482 41,000  Level Memphis Center
12:53PM 34.7192 -88.8967 North 419 482 41,000  Level Memphis Center
12:54PM 34.8358 -88.8819 North 419 482 41,000  Level Memphis Center
12:55PM 34.9544 -88.8697 North 419 482 41,000  Level Memphis Center
12:56PM 35.0567 -88.8603 North 419 482 41,000  Level Memphis Center
12:57PM 35.1753 -88.8456 North 424 488 41,000  Level Memphis Center
12:58PM 35.2900 -88.8333 North 417 480 41,000  Level Memphis Center
12:59PM 35.4086 -88.8208 North 417 480 41,000  Level Memphis Center
01:00PM 35.5233 -88.8111 North 422 486 41,000  Level Memphis Center
01:01PM 35.6378 -88.7961 North 416 479 41,000  Level Memphis Center
01:02PM 35.7525 -88.7839 North 416 479 41,000  Level Memphis Center
01:03PM 35.8689 -88.7714 North 416 479 41,000  Level Memphis Center
01:04PM 35.9856 -88.7564 North 416 479 41,000  Level Memphis Center
01:05PM 36.1022 -88.7436 North 416 479 41,000  Level Memphis Center
01:06PM 36.2208 -88.7286 North 421 484 41,000  Level Memphis Center
01:07PM 36.3375 -88.7158 North 421 484 41,000  Level Memphis Center
01:08PM 36.4539 -88.7058 North 421 484 41,000  Level Memphis Center
01:09PM 36.5725 -88.6903 North 421 484 41,000  Level Memphis Center
01:10PM 36.6892 -88.6803 North 421 484 41,000  Level Memphis Center
01:11PM 36.8078 -88.6675 North 421 484 41,000  Level Memphis Center
01:12PM 36.9264 -88.6544 North 421 484 41,000  Level Memphis Center
01:13PM 37.0428 -88.6389 North 421 484 41,000  Level Memphis Center
01:14PM 37.1614 -88.6261 North 421 484 41,000  Level Memphis Center
01:16PM 37.3706 -88.5994 North 429 494 41,000  Level Kansas City Center
01:17PM 37.4897 -88.5861 North 429 494 41,000  Level Kansas City Center
01:18PM 37.6047 -88.5728 North 430 495 41,000  Level Kansas City Center
01:19PM 37.7497 -88.5558 North 432 497 41,000 -540 Level Kansas City Center
01:20PM 37.8686 -88.5414 North 428 493 40,000 -1,200 Descending Kansas City Center
01:21PM 37.9875 -88.5264 North 427 491 38,600 -1,500 Descending Kansas City Center
01:22PM 38.1100 -88.5139 North 433 498 36,900 -1,500 Descending Kansas City Center
01:23PM 38.2317 -88.4992 North 436 502 35,600 -1,020 Descending Kansas City Center
01:25PM 38.3519 -88.4850 North 434 499 34,800 -1,560 Descending Kansas City Center
01:26PM 38.4728 -88.4703 North 433 498 32,400 -2,520 Descending Kansas City Center
01:27PM 38.5967 -88.4550 North 437 503 29,700 -3,000 Descending Kansas City Center
01:28PM 38.7500 -88.4367 North 448 516 26,300 -2,760 Descending Kansas City Center
01:29PM 38.8694 -88.4214 North 441 507 24,100 -2,520 Descending Kansas City Center
01:30PM 38.9853 -88.4075 North 424 488 21,200 -2,880 Descending Kansas City Center
01:31PM 39.1083 -88.3928 North 431 496 18,200 -2,880 Descending Kansas City Center
01:32PM 39.2264 -88.3772 North 429 494 15,300 -2,580 Descending Kansas City Center
01:33PM 39.3372 -88.3619 North 418 481 12,900 -1,980 Descending Kansas City Center
01:34PM 39.4364 -88.3486 North 382 440 11,300 -960 Descending Kansas City Center
01:35PM 39.5492 -88.3381 North 349 402 11,000 -780 Descending Kansas City Center
01:36PM 39.6342 -88.3594 349° North 323 372 9,700 -1,380 Descending Kansas City Center
01:37PM 39.7014 -88.3922 339° North 294 338 8,200 -1,500 Descending Kansas City Center
01:38PM 39.7783 -88.4194 345° North 287 330 6,600 -1,680 Descending Kansas City Center
01:39PM 39.8722 -88.4503 346° North 288 331 4,800 -1,500 Descending Kansas City Center
01:40PM 39.9314 -88.4744 343° North 283 326 3,800 -1,020 Descending Chicago Center
01:41PM 40.0056 -88.4989 346° North 281 323 3,000 -420 Descending Chicago Center
01:42PM 40.0731 -88.5233 345° North 270 311 3,000  Level Chicago Center
01:43PM 40.1278 -88.5347 351° North 239 275 3,000  Level Chicago Center
01:44PM 40.1736 -88.4864 39° Northeast 220 253 3,000  Level Chicago Center
01:45PM 40.1525 -88.4206 113° Southeast 211 243 3,000  Level Chicago Center
01:46PM 40.1206 -88.3747 132° Southeast 203 234 3,000  Level Chicago Center